sensor_id;sensor_type;location;lat;lon;timestamp;pressure;altitude;pressure_sealevel;temperature;humidity
20825;BME280;10573;50.936;6.978;2023-04-28T00:01:41;100918.25;;;15.61;44.01
20825;BME280;10573;50.936;6.978;2023-04-28T00:04:06;100902.16;;;15.50;44.05
20825;BME280;10573;50.936;6.978;2023-04-28T00:06:31;100900.75;;;15.62;44.11
20825;BME280;10573;50.936;6.978;2023-04-28T00:08:57;100901.47;;;15.48;44.42
20825;BME280;10573;50.936;6.978;2023-04-28T00:11:22;100903.84;;;15.51;44.30
20825;BME280;10573;50.936;6.978;2023-04-28T00:13:47;100892.88;;;15.51;44.54
20825;BME280;10573;50.936;6.978;2023-04-28T00:16:13;100892.03;;;15.50;44.14
20825;BME280;10573;50.936;6.978;2023-04-28T00:18:38;100892.50;;;15.62;44.11
20825;BME280;10573;50.936;6.978;2023-04-28T00:21:03;100891.13;;;15.66;44.06
20825;BME280;10573;50.936;6.978;2023-04-28T00:23:29;100899.44;;;15.17;44.96
20825;BME280;10573;50.936;6.978;2023-04-28T00:25:54;100893.41;;;15.38;44.56
20825;BME280;10573;50.936;6.978;2023-04-28T00:28:21;100887.25;;;15.27;44.78
20825;BME280;10573;50.936;6.978;2023-04-28T00:30:46;100883.25;;;15.55;45.06
20825;BME280;10573;50.936;6.978;2023-04-28T00:33:12;100878.97;;;15.52;45.30
20825;BME280;10573;50.936;6.978;2023-04-28T00:35:38;100862.31;;;15.46;45.19
20825;BME280;10573;50.936;6.978;2023-04-28T00:38:03;100856.53;;;15.24;45.51
20825;BME280;10573;50.936;6.978;2023-04-28T00:40:35;100852.25;;;15.30;45.55
20825;BME280;10573;50.936;6.978;2023-04-28T00:43:01;100850.03;;;15.25;45.67
20825;BME280;10573;50.936;6.978;2023-04-28T00:45:26;100845.25;;;15.19;45.47
20825;BME280;10573;50.936;6.978;2023-04-28T00:47:52;100844.38;;;15.18;45.65
20825;BME280;10573;50.936;6.978;2023-04-28T00:50:17;100839.22;;;15.15;45.81
20825;BME280;10573;50.936;6.978;2023-04-28T00:52:43;100844.75;;;14.99;46.02
20825;BME280;10573;50.936;6.978;2023-04-28T00:55:08;100843.00;;;15.22;45.66
20825;BME280;10573;50.936;6.978;2023-04-28T00:57:34;100848.50;;;15.14;45.79
20825;BME280;10573;50.936;6.978;2023-04-28T00:59:59;100842.00;;;15.07;45.97
20825;BME280;10573;50.936;6.978;2023-04-28T01:02:25;100837.00;;;15.10;46.01
20825;BME280;10573;50.936;6.978;2023-04-28T01:04:50;100837.34;;;15.07;46.00
20825;BME280;10573;50.936;6.978;2023-04-28T01:07:16;100842.13;;;15.30;45.42
20825;BME280;10573;50.936;6.978;2023-04-28T01:09:41;100836.47;;;15.32;45.55
20825;BME280;10573;50.936;6.978;2023-04-28T01:12:08;100843.16;;;15.21;46.42
20825;BME280;10573;50.936;6.978;2023-04-28T01:14:33;100846.28;;;15.09;48.13
20825;BME280;10573;50.936;6.978;2023-04-28T01:16:59;100849.66;;;15.28;49.49
20825;BME280;10573;50.936;6.978;2023-04-28T01:19:24;100847.28;;;15.17;50.47
20825;BME280;10573;50.936;6.978;2023-04-28T01:21:50;100837.84;;;15.19;50.37
20825;BME280;10573;50.936;6.978;2023-04-28T01:24:15;100835.63;;;15.23;52.25
20825;BME280;10573;50.936;6.978;2023-04-28T01:26:41;100840.78;;;14.93;51.56
20825;BME280;10573;50.936;6.978;2023-04-28T01:29:06;100840.44;;;14.80;53.06
20825;BME280;10573;50.936;6.978;2023-04-28T01:31:31;100842.34;;;14.79;53.78
20825;BME280;10573;50.936;6.978;2023-04-28T01:33:57;100832.38;;;14.78;53.95
20825;BME280;10573;50.936;6.978;2023-04-28T01:36:22;100834.44;;;14.76;54.65
20825;BME280;10573;50.936;6.978;2023-04-28T01:38:50;100838.00;;;14.52;54.49
20825;BME280;10573;50.936;6.978;2023-04-28T01:41:16;100835.94;;;14.62;55.38
20825;BME280;10573;50.936;6.978;2023-04-28T01:43:41;100840.56;;;14.62;55.79
20825;BME280;10573;50.936;6.978;2023-04-28T01:46:08;100833.19;;;14.54;55.65
20825;BME280;10573;50.936;6.978;2023-04-28T01:48:33;100828.44;;;14.64;55.90
20825;BME280;10573;50.936;6.978;2023-04-28T01:50:58;100828.44;;;14.64;55.80
20825;BME280;10573;50.936;6.978;2023-04-28T01:53:23;100823.59;;;14.50;55.95
20825;BME280;10573;50.936;6.978;2023-04-28T01:55:49;100819.81;;;14.42;56.83
20825;BME280;10573;50.936;6.978;2023-04-28T01:58:15;100822.75;;;14.57;56.76
20825;BME280;10573;50.936;6.978;2023-04-28T02:00:40;100825.56;;;14.15;58.43
20825;BME280;10573;50.936;6.978;2023-04-28T02:03:06;100832.09;;;14.22;58.62
20825;BME280;10573;50.936;6.978;2023-04-28T02:05:31;100838.47;;;14.39;57.49
20825;BME280;10573;50.936;6.978;2023-04-28T02:07:56;100833.16;;;14.37;56.15
20825;BME280;10573;50.936;6.978;2023-04-28T02:10:21;100828.06;;;14.51;57.53
20825;BME280;10573;50.936;6.978;2023-04-28T02:12:47;100832.50;;;14.52;58.99
20825;BME280;10573;50.936;6.978;2023-04-28T02:15:12;100833.47;;;14.26;58.79
20825;BME280;10573;50.936;6.978;2023-04-28T02:17:38;100829.31;;;14.05;59.65
20825;BME280;10573;50.936;6.978;2023-04-28T02:20:03;100821.84;;;14.32;58.58
20825;BME280;10573;50.936;6.978;2023-04-28T02:22:29;100827.84;;;14.36;57.89
20825;BME280;10573;50.936;6.978;2023-04-28T02:24:54;100833.81;;;14.23;58.51
20825;BME280;10573;50.936;6.978;2023-04-28T02:27:20;100835.19;;;14.27;58.77
20825;BME280;10573;50.936;6.978;2023-04-28T02:29:45;100825.28;;;14.34;59.00
20825;BME280;10573;50.936;6.978;2023-04-28T02:32:10;100820.81;;;14.25;59.71
20825;BME280;10573;50.936;6.978;2023-04-28T02:34:36;100825.94;;;14.28;58.68
20825;BME280;10573;50.936;6.978;2023-04-28T02:37:01;100826.66;;;14.38;58.69
20825;BME280;10573;50.936;6.978;2023-04-28T02:39:26;100819.09;;;14.16;58.50
20825;BME280;10573;50.936;6.978;2023-04-28T02:41:54;100818.56;;;14.20;59.02
20825;BME280;10573;50.936;6.978;2023-04-28T02:44:19;100816.31;;;14.07;60.45
20825;BME280;10573;50.936;6.978;2023-04-28T02:46:45;100813.19;;;13.94;61.21
20825;BME280;10573;50.936;6.978;2023-04-28T02:49:10;100807.38;;;13.97;61.47
20825;BME280;10573;50.936;6.978;2023-04-28T02:51:36;100817.00;;;14.09;60.69
20825;BME280;10573;50.936;6.978;2023-04-28T02:54:01;100799.47;;;13.86;60.81
20825;BME280;10573;50.936;6.978;2023-04-28T02:56:26;100803.94;;;13.95;60.96
20825;BME280;10573;50.936;6.978;2023-04-28T02:58:53;100801.16;;;13.87;59.73
20825;BME280;10573;50.936;6.978;2023-04-28T03:01:19;100802.25;;;13.59;59.68
20825;BME280;10573;50.936;6.978;2023-04-28T03:03:44;100803.53;;;13.82;59.83
20825;BME280;10573;50.936;6.978;2023-04-28T03:06:09;100796.16;;;13.66;59.96
20825;BME280;10573;50.936;6.978;2023-04-28T03:08:35;100788.00;;;13.82;59.09
20825;BME280;10573;50.936;6.978;2023-04-28T03:11:00;100795.88;;;13.51;60.62
20825;BME280;10573;50.936;6.978;2023-04-28T03:13:25;100789.66;;;13.75;61.03
20825;BME280;10573;50.936;6.978;2023-04-28T03:15:51;100790.22;;;13.87;60.61
20825;BME280;10573;50.936;6.978;2023-04-28T03:18:16;100785.94;;;13.84;60.25
20825;BME280;10573;50.936;6.978;2023-04-28T03:20:43;100786.22;;;13.65;59.78
20825;BME280;10573;50.936;6.978;2023-04-28T03:23:08;100784.25;;;13.83;59.62
20825;BME280;10573;50.936;6.978;2023-04-28T03:25:33;100787.75;;;13.59;60.32
20825;BME280;10573;50.936;6.978;2023-04-28T03:27:58;100786.53;;;13.62;60.35
20825;BME280;10573;50.936;6.978;2023-04-28T03:30:24;100787.25;;;13.72;59.87
20825;BME280;10573;50.936;6.978;2023-04-28T03:32:49;100784.19;;;13.75;60.55
20825;BME280;10573;50.936;6.978;2023-04-28T03:35:14;100791.09;;;13.26;60.49
20825;BME280;10573;50.936;6.978;2023-04-28T03:37:40;100784.59;;;13.46;60.61
20825;BME280;10573;50.936;6.978;2023-04-28T03:40:05;100785.66;;;13.61;61.37
20825;BME280;10573;50.936;6.978;2023-04-28T03:42:31;100779.75;;;13.74;60.97
20825;BME280;10573;50.936;6.978;2023-04-28T03:44:56;100763.19;;;13.92;61.50
20825;BME280;10573;50.936;6.978;2023-04-28T03:47:21;100756.75;;;13.58;62.45
20825;BME280;10573;50.936;6.978;2023-04-28T03:49:47;100759.03;;;13.71;63.06
20825;BME280;10573;50.936;6.978;2023-04-28T03:52:12;100749.72;;;13.56;63.02
20825;BME280;10573;50.936;6.978;2023-04-28T03:54:37;100745.66;;;13.34;64.25
20825;BME280;10573;50.936;6.978;2023-04-28T03:57:03;100744.19;;;13.39;64.76
20825;BME280;10573;50.936;6.978;2023-04-28T03:59:28;100750.28;;;13.33;64.01
20825;BME280;10573;50.936;6.978;2023-04-28T04:01:53;100737.34;;;13.43;64.58
20825;BME280;10573;50.936;6.978;2023-04-28T04:04:19;100735.38;;;13.62;64.17
20825;BME280;10573;50.936;6.978;2023-04-28T04:06:44;100713.84;;;13.67;64.09
20825;BME280;10573;50.936;6.978;2023-04-28T04:09:09;100712.78;;;13.60;64.09
20825;BME280;10573;50.936;6.978;2023-04-28T04:11:34;100709.34;;;13.50;63.38
20825;BME280;10573;50.936;6.978;2023-04-28T04:14:00;100690.75;;;13.27;64.50
20825;BME280;10573;50.936;6.978;2023-04-28T04:16:25;100685.38;;;13.43;63.79
20825;BME280;10573;50.936;6.978;2023-04-28T04:18:50;100670.03;;;13.24;64.02
20825;BME280;10573;50.936;6.978;2023-04-28T04:21:16;100671.22;;;13.22;63.68
20825;BME280;10573;50.936;6.978;2023-04-28T04:23:41;100678.88;;;13.45;64.39
20825;BME280;10573;50.936;6.978;2023-04-28T04:26:06;100690.66;;;13.37;64.62
20825;BME280;10573;50.936;6.978;2023-04-28T04:28:32;100703.06;;;13.31;64.28
20825;BME280;10573;50.936;6.978;2023-04-28T04:30:57;100710.00;;;13.17;63.93
20825;BME280;10573;50.936;6.978;2023-04-28T04:33:23;100721.00;;;13.25;63.92
20825;BME280;10573;50.936;6.978;2023-04-28T04:35:48;100707.59;;;13.40;63.75
20825;BME280;10573;50.936;6.978;2023-04-28T04:38:14;100709.56;;;13.30;64.36
20825;BME280;10573;50.936;6.978;2023-04-28T04:40:39;100709.63;;;13.38;64.82
20825;BME280;10573;50.936;6.978;2023-04-28T04:43:04;100698.59;;;13.22;63.11
20825;BME280;10573;50.936;6.978;2023-04-28T04:45:30;100709.88;;;13.19;63.17
20825;BME280;10573;50.936;6.978;2023-04-28T04:47:55;100710.53;;;13.21;63.35
20825;BME280;10573;50.936;6.978;2023-04-28T04:50:20;100703.53;;;13.18;62.92
20825;BME280;10573;50.936;6.978;2023-04-28T04:52:46;100692.31;;;12.95;62.89
20825;BME280;10573;50.936;6.978;2023-04-28T04:55:11;100693.78;;;13.24;62.82
20825;BME280;10573;50.936;6.978;2023-04-28T04:57:36;100691.69;;;13.09;63.00
20825;BME280;10573;50.936;6.978;2023-04-28T05:00:03;100686.56;;;13.41;62.94
20825;BME280;10573;50.936;6.978;2023-04-28T05:02:28;100702.69;;;13.18;63.40
20825;BME280;10573;50.936;6.978;2023-04-28T05:04:54;100703.53;;;13.18;63.31
20825;BME280;10573;50.936;6.978;2023-04-28T05:07:19;100715.59;;;13.07;63.48
20825;BME280;10573;50.936;6.978;2023-04-28T05:09:44;100709.56;;;13.30;63.08
20825;BME280;10573;50.936;6.978;2023-04-28T05:12:10;100714.00;;;13.23;63.15
20825;BME280;10573;50.936;6.978;2023-04-28T05:14:35;100713.47;;;13.27;63.05
20825;BME280;10573;50.936;6.978;2023-04-28T05:17:01;100709.53;;;13.22;63.18
20825;BME280;10573;50.936;6.978;2023-04-28T05:19:26;100710.56;;;13.29;62.89
20825;BME280;10573;50.936;6.978;2023-04-28T05:21:52;100709.53;;;13.22;63.18
20825;BME280;10573;50.936;6.978;2023-04-28T05:24:20;100710.88;;;13.18;62.89
20825;BME280;10573;50.936;6.978;2023-04-28T05:26:47;100703.31;;;13.38;63.04
20825;BME280;10573;50.936;6.978;2023-04-28T05:29:13;100688.75;;;13.37;62.90
20825;BME280;10573;50.936;6.978;2023-04-28T05:31:38;100690.66;;;13.37;62.90
20825;BME280;10573;50.936;6.978;2023-04-28T05:34:03;100697.94;;;13.28;62.59
20825;BME280;10573;50.936;6.978;2023-04-28T05:36:28;100699.25;;;13.24;63.16
20825;BME280;10573;50.936;6.978;2023-04-28T05:38:54;100699.81;;;13.27;63.33
20825;BME280;10573;50.936;6.978;2023-04-28T05:41:19;100700.31;;;13.23;63.81
20825;BME280;10573;50.936;6.978;2023-04-28T05:43:44;100700.31;;;13.23;64.42
20825;BME280;10573;50.936;6.978;2023-04-28T05:46:11;100698.75;;;12.86;66.00
20825;BME280;10573;50.936;6.978;2023-04-28T05:48:37;100700.88;;;13.00;66.23
20825;BME280;10573;50.936;6.978;2023-04-28T05:51:03;100702.81;;;12.82;67.12
20825;BME280;10573;50.936;6.978;2023-04-28T05:53:28;100696.63;;;12.80;67.86
20825;BME280;10573;50.936;6.978;2023-04-28T05:55:53;100694.97;;;12.61;68.11
20825;BME280;10573;50.936;6.978;2023-04-28T05:58:18;100694.97;;;12.61;68.86
20825;BME280;10573;50.936;6.978;2023-04-28T06:00:44;100686.00;;;12.68;68.84
20825;BME280;10573;50.936;6.978;2023-04-28T06:03:09;100685.34;;;12.74;68.94
20825;BME280;10573;50.936;6.978;2023-04-28T06:05:35;100684.44;;;12.66;69.02
20825;BME280;10573;50.936;6.978;2023-04-28T06:08:00;100686.81;;;12.95;68.34
20825;BME280;10573;50.936;6.978;2023-04-28T06:10:27;100688.94;;;12.75;68.68
20825;BME280;10573;50.936;6.978;2023-04-28T06:12:53;100680.50;;;12.95;68.47
20825;BME280;10573;50.936;6.978;2023-04-28T06:15:18;100683.13;;;13.04;67.70
20825;BME280;10573;50.936;6.978;2023-04-28T06:17:43;100679.88;;;12.74;68.31
20825;BME280;10573;50.936;6.978;2023-04-28T06:20:09;100690.94;;;12.99;68.14
20825;BME280;10573;50.936;6.978;2023-04-28T06:22:36;100694.19;;;12.95;67.51
20825;BME280;10573;50.936;6.978;2023-04-28T06:25:01;100685.16;;;13.02;67.78
20825;BME280;10573;50.936;6.978;2023-04-28T06:27:27;100681.69;;;12.92;68.01
20825;BME280;10573;50.936;6.978;2023-04-28T06:29:52;100680.06;;;13.07;67.80
20825;BME280;10573;50.936;6.978;2023-04-28T06:32:17;100683.38;;;12.93;68.52
20825;BME280;10573;50.936;6.978;2023-04-28T06:34:42;100683.88;;;12.88;67.82
20825;BME280;10573;50.936;6.978;2023-04-28T06:37:08;100689.22;;;12.98;67.58
20825;BME280;10573;50.936;6.978;2023-04-28T06:39:33;100688.22;;;12.99;67.68
20825;BME280;10573;50.936;6.978;2023-04-28T06:41:58;100682.59;;;13.01;67.81
20825;BME280;10573;50.936;6.978;2023-04-28T06:44:25;100683.16;;;13.13;67.44
20825;BME280;10573;50.936;6.978;2023-04-28T06:46:51;100689.03;;;13.26;67.67
20825;BME280;10573;50.936;6.978;2023-04-28T06:49:16;100683.13;;;13.39;66.98
20825;BME280;10573;50.936;6.978;2023-04-28T06:51:41;100694.78;;;13.49;66.11
20825;BME280;10573;50.936;6.978;2023-04-28T06:54:07;100697.53;;;13.57;66.40
20825;BME280;10573;50.936;6.978;2023-04-28T06:56:32;100688.81;;;13.46;66.25
20825;BME280;10573;50.936;6.978;2023-04-28T06:58:57;100688.53;;;13.73;65.97
20825;BME280;10573;50.936;6.978;2023-04-28T07:01:23;100679.28;;;13.66;65.44
20825;BME280;10573;50.936;6.978;2023-04-28T07:03:48;100684.13;;;13.89;65.39
20825;BME280;10573;50.936;6.978;2023-04-28T07:06:14;100687.22;;;13.94;64.71
20825;BME280;10573;50.936;6.978;2023-04-28T07:08:40;100700.91;;;14.02;64.73
20825;BME280;10573;50.936;6.978;2023-04-28T07:11:06;100705.34;;;13.95;65.04
20825;BME280;10573;50.936;6.978;2023-04-28T07:13:31;100703.84;;;14.25;64.65
20825;BME280;10573;50.936;6.978;2023-04-28T07:15:57;100701.09;;;14.25;65.67
20825;BME280;10573;50.936;6.978;2023-04-28T07:18:22;100697.34;;;14.18;64.25
20825;BME280;10573;50.936;6.978;2023-04-28T07:20:48;100699.84;;;13.95;65.26
20825;BME280;10573;50.936;6.978;2023-04-28T07:23:13;100704.34;;;14.21;64.46
20825;BME280;10573;50.936;6.978;2023-04-28T07:25:38;100698.88;;;14.46;64.01
20825;BME280;10573;50.936;6.978;2023-04-28T07:28:05;100709.13;;;14.35;64.02
20825;BME280;10573;50.936;6.978;2023-04-28T07:30:30;100705.72;;;14.25;64.18
20825;BME280;10573;50.936;6.978;2023-04-28T07:32:56;100708.81;;;14.47;63.52
20825;BME280;10573;50.936;6.978;2023-04-28T07:35:22;100707.41;;;14.59;63.17
20825;BME280;10573;50.936;6.978;2023-04-28T07:37:48;100706.41;;;14.68;62.90
20825;BME280;10573;50.936;6.978;2023-04-28T07:40:13;100690.63;;;14.87;62.84
20825;BME280;10573;50.936;6.978;2023-04-28T07:42:38;100690.31;;;14.73;62.54
20825;BME280;10573;50.936;6.978;2023-04-28T07:45:04;100694.19;;;14.96;62.37
20825;BME280;10573;50.936;6.978;2023-04-28T07:47:29;100699.78;;;15.10;62.35
20825;BME280;10573;50.936;6.978;2023-04-28T07:49:55;100697.97;;;15.42;61.00
20825;BME280;10573;50.936;6.978;2023-04-28T07:52:20;100695.03;;;15.44;60.96
20825;BME280;10573;50.936;6.978;2023-04-28T07:54:46;100696.50;;;15.63;60.70
20825;BME280;10573;50.936;6.978;2023-04-28T07:57:11;100685.94;;;15.83;60.21
20825;BME280;10573;50.936;6.978;2023-04-28T07:59:37;100684.03;;;15.84;60.37
20825;BME280;10573;50.936;6.978;2023-04-28T08:02:02;100686.53;;;15.93;59.78
20825;BME280;10573;50.936;6.978;2023-04-28T08:04:27;100678.69;;;16.14;58.99
20825;BME280;10573;50.936;6.978;2023-04-28T08:06:54;100683.81;;;15.93;59.51
20825;BME280;10573;50.936;6.978;2023-04-28T08:09:19;100686.50;;;16.02;59.50
20825;BME280;10573;50.936;6.978;2023-04-28T08:11:44;100691.38;;;16.15;58.94
20825;BME280;10573;50.936;6.978;2023-04-28T08:14:10;100685.94;;;16.30;58.97
20825;BME280;10573;50.936;6.978;2023-04-28T08:16:35;100681.09;;;16.55;58.86
20825;BME280;10573;50.936;6.978;2023-04-28T08:19:04;100671.75;;;17.09;57.10
20825;BME280;10573;50.936;6.978;2023-04-28T08:21:29;100677.59;;;17.51;55.73
20825;BME280;10573;50.936;6.978;2023-04-28T08:23:55;100684.47;;;18.13;54.29
20825;BME280;10573;50.936;6.978;2023-04-28T08:26:20;100684.66;;;17.23;56.60
20825;BME280;10573;50.936;6.978;2023-04-28T08:28:45;100673.34;;;16.73;57.45
20825;BME280;10573;50.936;6.978;2023-04-28T08:31:11;100694.13;;;16.76;57.84
20825;BME280;10573;50.936;6.978;2023-04-28T08:33:36;100682.44;;;16.89;57.94
20825;BME280;10573;50.936;6.978;2023-04-28T08:36:01;100672.16;;;17.06;57.97
20825;BME280;10573;50.936;6.978;2023-04-28T08:38:27;100674.31;;;17.10;57.82
20825;BME280;10573;50.936;6.978;2023-04-28T08:40:53;100672.59;;;17.39;57.28
20825;BME280;10573;50.936;6.978;2023-04-28T08:43:18;100677.47;;;17.59;56.60
20825;BME280;10573;50.936;6.978;2023-04-28T08:45:45;100681.91;;;17.38;57.24
20825;BME280;10573;50.936;6.978;2023-04-28T08:48:18;100682.53;;;17.55;56.94
20825;BME280;10573;50.936;6.978;2023-04-28T08:50:50;100692.91;;;17.38;57.00
20825;BME280;10573;50.936;6.978;2023-04-28T08:53:25;100699.25;;;17.39;57.32
20825;BME280;10573;50.936;6.978;2023-04-28T08:55:51;100699.84;;;17.34;57.86
20825;BME280;10573;50.936;6.978;2023-04-28T08:58:18;100697.41;;;17.24;58.06
20825;BME280;10573;50.936;6.978;2023-04-28T09:00:44;100689.88;;;17.33;57.63
20825;BME280;10573;50.936;6.978;2023-04-28T09:03:09;100690.84;;;17.40;58.27
20825;BME280;10573;50.936;6.978;2023-04-28T09:05:35;100685.50;;;17.54;58.06
20825;BME280;10573;50.936;6.978;2023-04-28T09:08:01;100695.28;;;17.41;58.95
20825;BME280;10573;50.936;6.978;2023-04-28T09:10:26;100696.50;;;17.54;59.42
20825;BME280;10573;50.936;6.978;2023-04-28T09:12:53;100692.53;;;17.41;60.64
20825;BME280;10573;50.936;6.978;2023-04-28T09:15:29;100694.84;;;17.23;61.51
20825;BME280;10573;50.936;6.978;2023-04-28T09:17:55;100688.63;;;16.76;62.65
20825;BME280;10573;50.936;6.978;2023-04-28T09:22:46;100694.38;;;16.81;63.39
20825;BME280;10573;50.936;6.978;2023-04-28T09:25:12;100695.22;;;16.52;64.79
20825;BME280;10573;50.936;6.978;2023-04-28T09:27:37;100698.44;;;16.55;65.18
20825;BME280;10573;50.936;6.978;2023-04-28T09:30:03;100693.22;;;16.60;64.98
20825;BME280;10573;50.936;6.978;2023-04-28T09:32:28;100692.16;;;16.47;66.12
20825;BME280;10573;50.936;6.978;2023-04-28T09:34:54;100692.16;;;16.47;66.64
20825;BME280;10573;50.936;6.978;2023-04-28T09:37:24;100686.09;;;16.51;66.88
20825;BME280;10573;50.936;6.978;2023-04-28T09:39:50;100685.66;;;16.39;68.05
20825;BME280;10573;50.936;6.978;2023-04-28T09:42:38;100678.41;;;16.23;68.82
20825;BME280;10573;50.936;6.978;2023-04-28T09:45:07;100687.78;;;16.37;68.77
20825;BME280;10573;50.936;6.978;2023-04-28T09:47:33;100683.03;;;16.46;68.53
20825;BME280;10573;50.936;6.978;2023-04-28T09:50:00;100687.50;;;16.47;68.78
20825;BME280;10573;50.936;6.978;2023-04-28T09:52:26;100685.25;;;16.51;68.00
20825;BME280;10573;50.936;6.978;2023-04-28T09:54:52;100687.63;;;16.54;69.08
20825;BME280;10573;50.936;6.978;2023-04-28T09:57:18;100690.78;;;16.66;67.98
20825;BME280;10573;50.936;6.978;2023-04-28T09:59:47;100690.59;;;16.67;68.09
20825;BME280;10573;50.936;6.978;2023-04-28T10:02:14;100683.16;;;16.53;68.56
20825;BME280;10573;50.936;6.978;2023-04-28T10:04:41;100687.31;;;16.49;68.75
20825;BME280;10573;50.936;6.978;2023-04-28T10:07:06;100686.97;;;16.52;68.83
20825;BME280;10573;50.936;6.978;2023-04-28T10:09:32;100683.88;;;16.85;68.53
20825;BME280;10573;50.936;6.978;2023-04-28T10:11:59;100692.59;;;16.73;68.76
20825;BME280;10573;50.936;6.978;2023-04-28T10:14:25;100694.47;;;16.73;68.59
20825;BME280;10573;50.936;6.978;2023-04-28T10:16:50;100691.53;;;16.74;69.08
20825;BME280;10573;50.936;6.978;2023-04-28T10:19:18;100696.38;;;16.72;69.90
20825;BME280;10573;50.936;6.978;2023-04-28T10:21:46;100686.75;;;16.91;69.22
20825;BME280;10573;50.936;6.978;2023-04-28T10:24:20;100687.03;;;17.11;69.10
20825;BME280;10573;50.936;6.978;2023-04-28T10:29:23;100676.94;;;16.89;69.60
20825;BME280;10573;50.936;6.978;2023-04-28T10:34:33;100679.19;;;17.08;69.39
20825;BME280;10573;50.936;6.978;2023-04-28T10:36:58;100674.03;;;17.35;68.39
20825;BME280;10573;50.936;6.978;2023-04-28T10:39:24;100678.47;;;17.36;67.69
20825;BME280;10573;50.936;6.978;2023-04-28T10:41:49;100676.94;;;17.49;68.76
20825;BME280;10573;50.936;6.978;2023-04-28T10:49:50;100669.69;;;18.21;66.46
20825;BME280;10573;50.936;6.978;2023-04-28T10:57:37;100678.38;;;18.18;66.23
20825;BME280;10573;50.936;6.978;2023-04-28T11:02:46;100662.22;;;17.93;67.19
20825;BME280;10573;50.936;6.978;2023-04-28T11:05:13;100663.72;;;17.81;68.03
20825;BME280;10573;50.936;6.978;2023-04-28T11:07:39;100664.84;;;18.23;67.00
20825;BME280;10573;50.936;6.978;2023-04-28T11:10:04;100666.00;;;18.35;65.90
20825;BME280;10573;50.936;6.978;2023-04-28T11:12:31;100660.19;;;18.52;66.30
20825;BME280;10573;50.936;6.978;2023-04-28T11:14:56;100660.50;;;18.92;65.58
20825;BME280;10573;50.936;6.978;2023-04-28T11:17:31;100663.56;;;18.47;66.02
20825;BME280;10573;50.936;6.978;2023-04-28T11:20:02;100654.28;;;19.18;63.83
20825;BME280;10573;50.936;6.978;2023-04-28T11:22:30;100647.75;;;19.81;63.28
20825;BME280;10573;50.936;6.978;2023-04-28T11:24:56;100635.88;;;20.07;62.12
20825;BME280;10573;50.936;6.978;2023-04-28T11:27:22;100632.03;;;20.89;59.04
20825;BME280;10573;50.936;6.978;2023-04-28T11:29:48;100630.00;;;21.75;57.05
20825;BME280;10573;50.936;6.978;2023-04-28T11:32:14;100630.84;;;22.39;55.15
20825;BME280;10573;50.936;6.978;2023-04-28T11:34:40;100623.78;;;22.11;56.01
20825;BME280;10573;50.936;6.978;2023-04-28T11:37:06;100615.31;;;23.99;52.46
20825;BME280;10573;50.936;6.978;2023-04-28T11:39:32;100624.72;;;23.37;52.02
20825;BME280;10573;50.936;6.978;2023-04-28T11:42:01;100625.88;;;23.29;52.89
20825;BME280;10573;50.936;6.978;2023-04-28T11:44:33;100622.28;;;23.59;50.46
20825;BME280;10573;50.936;6.978;2023-04-28T11:46:59;100620.84;;;23.38;50.80
20825;BME280;10573;50.936;6.978;2023-04-28T11:49:25;100622.78;;;22.31;54.02
20825;BME280;10573;50.936;6.978;2023-04-28T11:51:56;100624.59;;;21.41;56.27
20825;BME280;10573;50.936;6.978;2023-04-28T11:54:27;100633.81;;;21.81;57.07
20825;BME280;10573;50.936;6.978;2023-04-28T11:56:53;100619.94;;;21.81;56.78
20825;BME280;10573;50.936;6.978;2023-04-28T11:59:22;100622.72;;;21.81;56.54
20825;BME280;10573;50.936;6.978;2023-04-28T12:04:15;100620.50;;;21.96;56.54
20825;BME280;10573;50.936;6.978;2023-04-28T12:07:00;100623.25;;;22.28;55.08
20825;BME280;10573;50.936;6.978;2023-04-28T12:09:26;100617.81;;;21.83;56.87
20825;BME280;10573;50.936;6.978;2023-04-28T12:12:01;100608.03;;;23.67;52.79
20825;BME280;10573;50.936;6.978;2023-04-28T12:14:27;100598.00;;;25.68;47.08
20825;BME280;10573;50.936;6.978;2023-04-28T12:16:52;100600.44;;;26.61;44.39
20825;BME280;10573;50.936;6.978;2023-04-28T12:19:18;100603.78;;;25.95;45.31
20825;BME280;10573;50.936;6.978;2023-04-28T12:21:57;100611.19;;;24.79;47.47
20825;BME280;10573;50.936;6.978;2023-04-28T12:24:22;100600.03;;;24.67;48.45
20825;BME280;10573;50.936;6.978;2023-04-28T12:26:50;100598.41;;;24.36;49.95
20825;BME280;10573;50.936;6.978;2023-04-28T12:29:37;100587.16;;;24.54;48.59
20825;BME280;10573;50.936;6.978;2023-04-28T12:32:06;100586.19;;;24.96;47.35
20825;BME280;10573;50.936;6.978;2023-04-28T12:34:32;100584.28;;;23.53;51.02
20825;BME280;10573;50.936;6.978;2023-04-28T12:37:01;100576.47;;;24.99;47.86
20825;BME280;10573;50.936;6.978;2023-04-28T12:39:27;100574.63;;;25.16;46.56
20825;BME280;10573;50.936;6.978;2023-04-28T12:41:52;100589.94;;;23.76;50.70
20825;BME280;10573;50.936;6.978;2023-04-28T12:44:19;100584.19;;;23.29;52.02
20825;BME280;10573;50.936;6.978;2023-04-28T12:46:45;100575.66;;;23.85;50.26
20825;BME280;10573;50.936;6.978;2023-04-28T12:49:10;100572.25;;;23.71;50.17
20825;BME280;10573;50.936;6.978;2023-04-28T12:51:36;100568.66;;;23.03;52.65
20825;BME280;10573;50.936;6.978;2023-04-28T12:54:03;100576.56;;;22.43;54.25
20825;BME280;10573;50.936;6.978;2023-04-28T12:56:28;100585.63;;;22.32;54.74
20825;BME280;10573;50.936;6.978;2023-04-28T12:58:54;100575.16;;;22.78;53.39
20825;BME280;10573;50.936;6.978;2023-04-28T13:01:19;100567.81;;;22.65;53.38
20825;BME280;10573;50.936;6.978;2023-04-28T13:03:45;100558.00;;;22.62;53.67
20825;BME280;10573;50.936;6.978;2023-04-28T13:06:12;100569.88;;;22.26;55.49
20825;BME280;10573;50.936;6.978;2023-04-28T13:08:37;100558.72;;;24.40;50.81